Time;durP1;ratioP1;P1;durP2;ratioP2;P2;SDS_P1;SDS_P2;PMS_P1;PMS_P2;Temp;Humidity;BMP_temperature;BMP_pressure;BME280_temperature;BME280_humidity;BME280_pressure;Samples;Min_cycle;Max_cycle;Signal;HPM_P1;HPM_P2
2021/03/18 00:00:24;;;;;;;1999.90;999.90;;;19.10;94.30;;;;;;5093319;28;20205;-53
2021/03/18 00:02:51;;;;;;;1999.90;999.90;;;19.10;94.10;;;;;;5093217;28;20172;-55
2021/03/18 00:05:17;;;;;;;1999.90;999.90;;;19.10;94.10;;;;;;5093202;28;20168;-45
2021/03/18 00:07:45;;;;;;;1999.90;999.90;;;19.00;94.20;;;;;;5093165;28;20636;-48
2021/03/18 00:10:12;;;;;;;1999.90;999.90;;;19.00;94.40;;;;;;5093431;28;20569;-54
2021/03/18 00:12:39;;;;;;;1999.90;999.90;;;18.80;94.60;;;;;;5092962;28;20648;-55
2021/03/18 00:15:12;;;;;;;1999.90;999.90;;;18.70;94.90;;;;;;5093205;28;20160;-55
2021/03/18 00:17:39;;;;;;;1999.90;999.90;;;18.60;95.10;;;;;;5093007;28;20168;-55
2021/03/18 00:20:11;;;;;;;1999.90;999.90;;;18.60;95.40;;;;;;5092985;28;20171;-55
2021/03/18 00:22:44;;;;;;;1999.90;999.90;;;18.50;95.40;;;;;;5093020;28;20170;-54
2021/03/18 00:25:13;;;;;;;1999.90;999.90;;;18.40;95.50;;;;;;5093327;28;20183;-56
2021/03/18 00:27:43;;;;;;;1999.90;999.90;;;18.40;95.70;;;;;;5092882;28;20167;-54
2021/03/18 00:30:11;;;;;;;1999.90;999.90;;;18.20;95.90;;;;;;5092953;28;20652;-53
2021/03/18 00:32:39;;;;;;;1999.90;999.90;;;18.30;96.20;;;;;;5092816;28;20248;-52
2021/03/18 00:35:11;;;;;;;1999.90;999.90;;;18.30;96.10;;;;;;5093077;28;20222;-55
2021/03/18 00:37:41;;;;;;;1999.90;999.90;;;18.30;96.00;;;;;;5092987;28;20160;-55
2021/03/18 00:40:16;;;;;;;1999.90;999.90;;;18.30;95.90;;;;;;5092817;28;20232;-49
2021/03/18 00:43:04;;;;;;;1999.90;999.90;;;18.20;96.00;;;;;;5092762;28;20180;-57
2021/03/18 00:45:33;;;;;;;1999.90;999.90;;;18.10;96.30;;;;;;5092871;28;20681;-52
2021/03/18 00:48:00;;;;;;;1999.90;999.90;;;18.10;96.20;;;;;;5092793;28;20164;-55
2021/03/18 00:50:37;;;;;;;1999.90;999.90;;;18.10;96.30;;;;;;5092797;28;20168;-54
2021/03/18 00:53:05;;;;;;;1999.90;999.90;;;18.00;96.40;;;;;;5092746;28;20215;-54
2021/03/18 00:55:32;;;;;;;1999.90;999.90;;;17.90;96.90;;;;;;5096220;28;20164;-54
2021/03/18 00:57:59;;;;;;;1999.90;999.90;;;17.80;97.40;;;;;;5096679;28;20254;-57
2021/03/18 01:00:37;;;;;;;1999.90;999.90;;;17.80;97.50;;;;;;5096635;28;20175;-53
2021/03/18 01:03:04;;;;;;;1999.90;999.90;;;17.90;97.40;;;;;;5096624;28;20179;-56
2021/03/18 01:05:40;;;;;;;1999.90;999.90;;;17.90;97.30;;;;;;5096550;28;20294;-51
2021/03/18 01:08:07;;;;;;;1999.90;999.90;;;17.90;97.40;;;;;;5096775;28;20163;-53
2021/03/18 01:10:40;;;;;;;1999.90;999.90;;;17.80;97.60;;;;;;5096307;28;20527;-55
2021/03/18 01:13:07;;;;;;;1999.90;999.90;;;17.80;97.70;;;;;;5096479;28;20200;-49
2021/03/18 01:15:36;;;;;;;1999.90;999.90;;;17.70;97.80;;;;;;5096397;28;20210;-55
2021/03/18 01:18:07;;;;;;;1999.90;999.90;;;17.70;97.60;;;;;;5096314;28;20640;-53
2021/03/18 01:20:34;;;;;;;1999.90;999.90;;;17.80;97.50;;;;;;5096183;28;20168;-55
2021/03/18 01:23:01;;;;;;;1999.90;999.90;;;17.80;97.30;;;;;;5096178;28;20164;-55
2021/03/18 01:25:28;;;;;;;1999.90;999.90;;;17.80;97.10;;;;;;5096113;28;20180;-56
2021/03/18 01:27:55;;;;;;;1999.90;999.90;;;17.90;96.90;;;;;;5096065;28;20255;-55
2021/03/18 01:30:24;;;;;;;1999.90;999.90;;;17.90;96.90;;;;;;5096017;28;20174;-54
2021/03/18 01:32:51;;;;;;;1999.90;999.90;;;17.90;96.70;;;;;;5095823;28;20203;-55
2021/03/18 01:35:22;;;;;;;1999.90;999.90;;;17.80;96.90;;;;;;5095945;28;20626;-46
2021/03/18 01:37:50;;;;;;;1999.90;999.90;;;17.80;97.10;;;;;;5095891;28;20167;-55
2021/03/18 01:40:30;;;;;;;1999.90;999.90;;;17.90;97.00;;;;;;5095897;28;20183;-54
2021/03/18 01:42:57;;;;;;;1999.90;999.90;;;17.80;96.90;;;;;;5095772;28;20171;-52
2021/03/18 01:45:24;;;;;;;1999.90;999.90;;;17.80;97.00;;;;;;5095780;28;20221;-56
2021/03/18 01:47:54;;;;;;;1999.90;999.90;;;17.70;97.10;;;;;;5095548;28;20176;-51
2021/03/18 01:50:24;;;;;;;1999.90;999.90;;;17.60;97.40;;;;;;5095645;28;20519;-56
2021/03/18 01:52:51;;;;;;;1999.90;999.90;;;17.70;97.30;;;;;;5095526;28;20196;-55
2021/03/18 01:55:25;;;;;;;1999.90;999.90;;;17.70;97.40;;;;;;5095565;28;20168;-55
2021/03/18 01:57:52;;;;;;;1999.90;999.90;;;17.80;97.10;;;;;;5095569;28;20548;-55
2021/03/18 02:00:20;;;;;;;1999.90;999.90;;;17.70;97.40;;;;;;5095304;28;20175;-53
2021/03/18 02:02:47;;;;;;;1999.90;999.90;;;17.70;97.20;;;;;;5095402;28;20258;-49
2021/03/18 02:05:14;;;;;;;1999.90;999.90;;;17.70;97.30;;;;;;5095012;28;20172;-44
2021/03/18 02:07:41;;;;;;;1999.90;999.90;;;17.70;97.10;;;;;;5095653;28;20183;-56
2021/03/18 02:10:09;;;;;;;1999.90;999.90;;;17.60;97.10;;;;;;5095229;28;20179;-53
2021/03/18 02:12:38;;;;;;;1999.90;999.90;;;17.60;97.30;;;;;;5094979;28;20708;-51
2021/03/18 02:15:08;;;;;;;1999.90;999.90;;;17.60;97.40;;;;;;5095179;28;20172;-52
2021/03/18 02:17:49;;;;;;;1999.90;999.90;;;17.60;97.50;;;;;;5095034;28;20254;-55
2021/03/18 02:20:51;;;;;;;1999.90;999.90;;;17.70;97.30;;;;;;5095070;28;20169;-54
2021/03/18 02:23:56;;;;;;;1999.90;999.90;;;17.70;97.50;;;;;;5095165;28;20614;-53
2021/03/18 02:26:38;;;;;;;1999.90;999.90;;;17.70;97.70;;;;;;5093896;28;20203;-56
2021/03/18 02:29:46;;;;;;;1999.90;999.90;;;17.80;97.60;;;;;;5095055;28;20167;-54
2021/03/18 02:32:34;;;;;;;1999.90;999.90;;;17.80;97.50;;;;;;5094922;28;20681;-55
2021/03/18 02:35:27;;;;;;;1999.90;999.90;;;17.90;97.30;;;;;;5094914;28;20158;-56
2021/03/18 02:38:16;;;;;;;1999.90;999.90;;;17.80;97.50;;;;;;5093628;28;20191;-55
2021/03/18 02:40:47;;;;;;;1999.90;999.90;;;17.90;97.50;;;;;;5094757;28;20179;-56
2021/03/18 02:43:17;;;;;;;1999.90;999.90;;;17.90;97.30;;;;;;5094840;28;20517;-54
2021/03/18 02:45:49;;;;;;;1999.90;999.90;;;17.90;97.30;;;;;;5094893;28;20184;-45
2021/03/18 02:48:23;;;;;;;1999.90;999.90;;;17.90;97.40;;;;;;5094763;28;20628;-51
2021/03/18 02:50:52;;;;;;;1999.90;999.90;;;18.00;97.30;;;;;;5094594;28;20259;-56
2021/03/18 02:53:20;;;;;;;1999.90;999.90;;;17.90;97.30;;;;;;5094352;28;20553;-48
2021/03/18 02:55:50;;;;;;;1999.90;999.90;;;17.80;97.40;;;;;;5094522;28;20633;-56
2021/03/18 02:58:21;;;;;;;1999.90;999.90;;;17.80;97.40;;;;;;5094414;28;20168;-54
2021/03/18 03:00:50;;;;;;;1999.90;999.90;;;17.80;97.30;;;;;;5094318;28;20156;-44
2021/03/18 03:03:18;;;;;;;1999.90;999.90;;;17.90;97.30;;;;;;5094452;28;20213;-53
2021/03/18 03:05:52;;;;;;;1999.90;999.90;;;17.80;96.80;;;;;;5093018;28;20168;-52
2021/03/18 03:08:21;;;;;;;1999.90;999.90;;;17.80;96.60;;;;;;5094142;28;20259;-49
2021/03/18 03:10:49;;;;;;;1999.90;999.90;;;17.70;96.90;;;;;;5094005;28;20168;-50
2021/03/18 03:13:16;;;;;;;1999.90;999.90;;;17.50;97.00;;;;;;5094088;28;20680;-56
2021/03/18 03:15:43;;;;;;;1999.90;999.90;;;17.50;97.60;;;;;;5093972;28;20179;-56
2021/03/18 03:18:13;;;;;;;1999.90;999.90;;;17.50;97.50;;;;;;5093320;28;20533;-54
2021/03/18 03:20:40;;;;;;;1999.90;999.90;;;17.50;97.40;;;;;;5093838;28;20259;-54
2021/03/18 03:23:09;;;;;;;1999.90;999.90;;;17.50;97.50;;;;;;5093860;28;20217;-56
2021/03/18 03:25:40;;;;;;;1999.90;999.90;;;17.40;97.60;;;;;;5093755;28;20305;-50
2021/03/18 03:28:10;;;;;;;1999.90;999.90;;;17.30;97.70;;;;;;5093827;28;20202;-52
2021/03/18 03:30:40;;;;;;;1999.90;999.90;;;17.30;97.70;;;;;;5093635;28;20167;-54
2021/03/18 03:33:09;;;;;;;1999.90;999.90;;;17.20;97.90;;;;;;5093628;28;20196;-57
2021/03/18 03:35:36;;;;;;;1999.90;999.90;;;17.20;98.00;;;;;;5093712;28;20174;-57
2021/03/18 03:38:05;;;;;;;1999.90;999.90;;;17.20;98.10;;;;;;5093601;28;20172;-56
2021/03/18 03:40:33;;;;;;;1999.90;999.90;;;17.20;97.90;;;;;;5093590;28;20625;-55
2021/03/18 03:43:01;;;;;;;1999.90;999.90;;;17.20;98.00;;;;;;5093433;28;20171;-51
2021/03/18 03:45:28;;;;;;;1999.90;999.90;;;17.20;98.00;;;;;;5093396;28;20544;-55
2021/03/18 03:47:56;;;;;;;1999.90;999.90;;;17.20;98.10;;;;;;5093377;28;20179;-56
2021/03/18 03:50:28;;;;;;;1999.90;999.90;;;17.20;98.10;;;;;;5093364;28;20171;-55
2021/03/18 03:53:19;;;;;;;1999.90;999.90;;;17.10;98.10;;;;;;5093238;28;20191;-56
2021/03/18 03:55:49;;;;;;;1999.90;999.90;;;17.10;98.20;;;;;;5093218;28;20168;-54
2021/03/18 03:58:43;;;;;;;1999.90;999.90;;;17.00;98.10;;;;;;5093164;28;20168;-54
2021/03/18 04:01:25;;;;;;;1999.90;999.90;;;17.00;98.00;;;;;;5093149;28;20163;-56
2021/03/18 04:03:58;;;;;;;1999.90;999.90;;;17.00;98.10;;;;;;5093282;28;20159;-53
2021/03/18 04:06:26;;;;;;;1999.90;999.90;;;17.10;98.00;;;;;;5093000;28;20255;-58
2021/03/18 04:08:54;;;;;;;1999.90;999.90;;;17.10;97.80;;;;;;5093177;28;20172;-55
2021/03/18 04:11:22;;;;;;;1999.90;999.90;;;17.10;97.70;;;;;;5092918;28;20223;-49
2021/03/18 04:13:50;;;;;;;1999.90;999.90;;;17.00;97.70;;;;;;5093439;28;20258;-56
2021/03/18 04:16:17;;;;;;;1999.90;999.90;;;17.00;97.80;;;;;;5093046;28;20629;-59
2021/03/18 04:18:45;;;;;;;1999.90;999.90;;;17.00;97.90;;;;;;5093003;28;20172;-55
2021/03/18 04:21:14;;;;;;;1999.90;999.90;;;17.00;97.80;;;;;;5093027;28;20613;-58
2021/03/18 04:23:42;;;;;;;1999.90;999.90;;;16.90;97.60;;;;;;5092887;28;20179;-57
2021/03/18 04:26:10;;;;;;;1999.90;999.90;;;16.90;97.60;;;;;;5092998;28;20164;-57
2021/03/18 04:28:37;;;;;;;1999.90;999.90;;;16.90;97.30;;;;;;5095031;28;20677;-49
2021/03/18 04:31:08;;;;;;;1999.90;999.90;;;16.90;97.20;;;;;;5097090;28;20251;-59
2021/03/18 04:33:36;;;;;;;1999.90;999.90;;;16.90;97.10;;;;;;5096968;28;20627;-59
2021/03/18 04:36:04;;;;;;;1999.90;999.90;;;16.90;96.90;;;;;;5097007;28;20170;-56
2021/03/18 04:38:32;;;;;;;1999.90;999.90;;;16.90;96.90;;;;;;5096982;28;20178;-59
2021/03/18 04:40:59;;;;;;;1999.90;999.90;;;16.80;97.10;;;;;;5096733;28;20160;-51
2021/03/18 04:43:27;;;;;;;1999.90;999.90;;;16.80;97.20;;;;;;5096916;28;20179;-45
2021/03/18 04:45:56;;;;;;;1999.90;999.90;;;16.70;97.20;;;;;;5097068;28;20171;-53
2021/03/18 04:48:24;;;;;;;1999.90;999.90;;;16.70;97.20;;;;;;5097060;28;20221;-53
2021/03/18 04:50:51;;;;;;;1999.90;999.90;;;16.60;97.20;;;;;;5096643;28;20164;-56
2021/03/18 04:53:22;;;;;;;1999.90;999.90;;;16.60;97.30;;;;;;5096349;28;20242;-48
2021/03/18 04:55:49;;;;;;;1999.90;999.90;;;16.60;97.10;;;;;;5096274;28;20163;-57
2021/03/18 04:58:20;;;;;;;1999.90;999.90;;;16.50;97.10;;;;;;5096228;28;20175;-56
2021/03/18 05:00:47;;;;;;;1999.90;999.90;;;16.50;97.20;;;;;;5096487;28;20172;-46
2021/03/18 05:03:15;;;;;;;1999.90;999.90;;;16.60;97.10;;;;;;5096193;28;20258;-56
2021/03/18 05:05:42;;;;;;;1999.90;999.90;;;16.60;96.60;;;;;;5096513;28;20697;-58
2021/03/18 05:08:10;;;;;;;1999.90;999.90;;;16.60;96.30;;;;;;5096151;28;20638;-54
2021/03/18 05:10:41;;;;;;;1999.90;999.90;;;16.60;96.30;;;;;;5096131;28;20526;-56
2021/03/18 05:13:10;;;;;;;1999.90;999.90;;;16.60;96.30;;;;;;5096127;28;20541;-48
2021/03/18 05:15:40;;;;;;;1999.90;999.90;;;16.60;96.00;;;;;;5096374;28;20518;-51
2021/03/18 05:18:11;;;;;;;1999.90;999.90;;;16.60;95.80;;;;;;5096029;28;20527;-57
2021/03/18 05:20:39;;;;;;;1999.90;999.90;;;16.60;95.70;;;;;;5096018;28;20697;-57
2021/03/18 05:23:11;;;;;;;1999.90;999.90;;;16.50;95.90;;;;;;5096194;28;20174;-53
2021/03/18 05:25:39;;;;;;;1999.90;999.90;;;16.40;96.10;;;;;;5095842;28;20257;-53
2021/03/18 05:28:07;;;;;;;1999.90;999.90;;;16.30;96.40;;;;;;5095766;28;20175;-55
2021/03/18 05:30:34;;;;;;;1999.90;999.90;;;16.30;96.60;;;;;;5095858;28;20164;-48
2021/03/18 05:33:03;;;;;;;1999.90;999.90;;;16.20;96.70;;;;;;5095546;28;20195;-47
2021/03/18 05:35:35;;;;;;;1999.90;999.90;;;16.20;96.90;;;;;;5095844;28;20168;-52
2021/03/18 05:38:04;;;;;;;1999.90;999.90;;;16.20;97.10;;;;;;5095037;28;20168;-56
2021/03/18 05:40:31;;;;;;;1999.90;999.90;;;16.20;97.10;;;;;;5094475;28;20524;-43
2021/03/18 05:42:58;;;;;;;1999.90;999.90;;;16.20;97.20;;;;;;5095364;28;20172;-56
2021/03/18 05:45:25;;;;;;;1999.90;999.90;;;16.20;97.20;;;;;;5095345;28;20527;-54
2021/03/18 05:47:53;;;;;;;1999.90;999.90;;;16.20;97.30;;;;;;5095153;28;20172;-49
2021/03/18 05:50:21;;;;;;;1999.90;999.90;;;16.20;97.50;;;;;;5095109;28;20160;-53
2021/03/18 05:52:50;;;;;;;1999.90;999.90;;;16.30;97.60;;;;;;5094905;28;20215;-48
2021/03/18 05:55:19;;;;;;;1999.90;999.90;;;16.30;97.50;;;;;;5095067;28;20499;-57
2021/03/18 05:57:49;;;;;;;1999.90;999.90;;;16.40;97.40;;;;;;5095083;28;20278;-58
2021/03/18 06:00:17;;;;;;;1999.90;999.90;;;16.50;96.80;;;;;;5080832;28;20305;-59
2021/03/18 06:02:44;;;;;;;1999.90;999.90;;;16.70;96.30;;;;;;5074521;28;20268;-58
2021/03/18 06:18:06;;;;;;;1999.90;999.90;;;17.30;95.20;;;;;;5105873;27;20578;-50
2021/03/18 06:20:33;;;;;;;1999.90;999.90;;;17.90;94.00;;;;;;5105822;28;20194;-61
2021/03/18 06:23:07;;;;;;;1999.90;999.90;;;17.90;93.90;;;;;;5104635;28;20279;-44
2021/03/18 06:25:37;;;;;;;1999.90;999.90;;;18.20;93.70;;;;;;5109002;28;20251;-44
2021/03/18 06:28:24;;;;;;;1999.90;999.90;;;18.20;93.30;;;;;;5108098;28;20175;-45
2021/03/18 06:31:18;;;;;;;1999.90;999.90;;;18.40;93.10;;;;;;5107485;28;20155;-38
2021/03/18 06:33:50;;;;;;;1999.90;999.90;;;18.50;92.70;;;;;;5107500;28;20629;-46
2021/03/18 06:36:33;;;;;;;1999.90;999.90;;;18.70;92.30;;;;;;5106984;28;20164;-50
2021/03/18 06:39:20;;;;;;;1999.90;999.90;;;18.90;92.00;;;;;;5100543;28;20252;-50
2021/03/18 06:41:56;;;;;;;1999.90;999.90;;;19.10;91.10;;;;;;5105122;28;20168;-62
2021/03/18 06:44:24;;;;;;;1999.90;999.90;;;19.20;90.50;;;;;;5108500;28;20212;-51
2021/03/18 06:47:08;;;;;;;1999.90;999.90;;;19.10;90.80;;;;;;5109502;28;20213;-57
2021/03/18 06:49:35;;;;;;;1999.90;999.90;;;19.30;90.50;;;;;;5109276;28;20612;-47
2021/03/18 06:52:02;;;;;;;1999.90;999.90;;;19.40;89.30;;;;;;5108511;28;20171;-52
2021/03/18 06:54:32;;;;;;;1999.90;999.90;;;19.50;89.00;;;;;;5109161;28;20527;-46
2021/03/18 06:57:00;;;;;;;1999.90;999.90;;;19.60;88.40;;;;;;5108751;28;20168;-46
2021/03/18 06:59:36;;;;;;;1999.90;999.90;;;19.60;87.40;;;;;;5108874;28;20211;-60
2021/03/18 07:02:22;;;;;;;1999.90;999.90;;;19.70;87.00;;;;;;5109008;28;20518;-52
2021/03/18 07:04:56;;;;;;;1999.90;999.90;;;19.80;87.20;;;;;;5102185;28;20243;-51
2021/03/18 07:07:25;;;;;;;1999.90;999.90;;;20.00;86.40;;;;;;5108754;28;20227;-54
2021/03/18 07:09:57;;;;;;;1999.90;999.90;;;20.30;84.50;;;;;;5108527;28;20195;-61
2021/03/18 07:12:31;;;;;;;1999.90;999.90;;;20.50;84.10;;;;;;5115634;28;20175;-47
2021/03/18 07:15:02;;;;;;;1999.90;999.90;;;20.50;83.20;;;;;;5111724;28;20163;-59
2021/03/18 07:17:35;;;;;;;1999.90;999.90;;;20.50;82.70;;;;;;5102897;28;20765;-58
2021/03/18 07:20:17;;;;;;;1999.90;999.90;;;20.50;82.10;;;;;;5095378;28;20168;-59
2021/03/18 07:22:55;;;;;;;1999.90;999.90;;;20.50;82.60;;;;;;5094631;28;20274;-52
2021/03/18 07:25:26;;;;;;;1999.90;999.90;;;20.60;81.40;;;;;;5094684;28;20665;-61
2021/03/18 07:28:01;;;;;;;1999.90;999.90;;;20.70;81.80;;;;;;5094676;28;20160;-46
2021/03/18 07:30:28;;;;;;;1999.90;999.90;;;20.70;81.80;;;;;;5091661;28;20163;-56
2021/03/18 07:32:56;;;;;;;1999.90;999.90;;;20.80;81.70;;;;;;5094877;28;20175;-50
2021/03/18 07:35:24;;;;;;;1999.90;999.90;;;21.00;81.40;;;;;;5094757;28;20661;-57
2021/03/18 07:37:52;;;;;;;1999.90;999.90;;;21.00;80.00;;;;;;5094393;28;20534;-48
2021/03/18 07:40:19;;;;;;;1999.90;999.90;;;21.00;80.70;;;;;;5092923;28;20170;-57
2021/03/18 07:42:48;;;;;;;1999.90;999.90;;;21.30;80.00;;;;;;5076002;28;20223;-47
2021/03/18 07:45:18;;;;;;;1999.90;999.90;;;21.50;79.30;;;;;;5094114;28;20168;-49
2021/03/18 07:47:46;;;;;;;1999.90;999.90;;;21.70;78.30;;;;;;5093771;28;20194;-55
2021/03/18 07:50:17;;;;;;;1999.90;999.90;;;22.00;77.60;;;;;;5091291;28;20172;-53
2021/03/18 07:52:47;;;;;;;1999.90;999.90;;;22.20;76.10;;;;;;5094595;28;20614;-59
2021/03/18 07:55:18;;;;;;;1999.90;999.90;;;22.60;74.80;;;;;;5091763;28;20183;-51
2021/03/18 07:57:50;;;;;;;1999.90;999.90;;;22.70;73.00;;;;;;5094133;28;20192;-47
2021/03/18 08:00:20;;;;;;;1999.90;999.90;;;22.80;73.20;;;;;;5094434;28;20528;-50
2021/03/18 08:02:46;;;;;;;1999.90;999.90;;;23.00;72.30;;;;;;5093981;28;20624;-53
2021/03/18 08:17:27;;;;;;;1999.90;999.90;;;23.50;69.30;;;;;;5171244;27;20893;-47
2021/03/18 08:19:54;;;;;;;1999.90;999.90;;;25.70;61.50;;;;;;5168490;27;20177;-45
2021/03/18 08:22:29;;;;;;;1999.90;999.90;;;25.80;59.50;;;;;;5171731;27;20165;-62
2021/03/18 08:25:27;;;;;;;1999.90;999.90;;;26.50;58.30;;;;;;5171327;27;20218;-46
2021/03/18 08:27:53;;;;;;;1999.90;999.90;;;26.90;59.60;;;;;;5170901;27;20401;-57
2021/03/18 08:30:26;;;;;;;1999.90;999.90;;;27.40;55.80;;;;;;5171114;27;20173;-51
2021/03/18 08:32:52;;;;;;;1999.90;999.90;;;27.20;55.00;;;;;;5170736;27;20161;-46
2021/03/18 08:35:27;;;;;;;1999.90;999.90;;;27.60;54.10;;;;;;5171613;27;20646;-60
2021/03/18 08:38:12;;;;;;;1999.90;999.90;;;27.70;53.70;;;;;;5170887;27;20172;-58
2021/03/18 08:40:39;;;;;;;1999.90;999.90;;;28.10;52.10;;;;;;5171483;27;20153;-46
2021/03/18 08:43:08;;;;;;;1999.90;999.90;;;27.80;52.20;;;;;;5171305;27;20198;-46
2021/03/18 08:45:38;;;;;;;1999.90;999.90;;;27.90;50.80;;;;;;5170770;27;20204;-46
2021/03/18 08:48:18;;;;;;;1999.90;999.90;;;27.70;51.50;;;;;;5171107;27;20173;-47
2021/03/18 08:50:45;;;;;;;1999.90;999.90;;;28.10;51.00;;;;;;5160897;27;20166;-49
2021/03/18 08:53:31;;;;;;;1999.90;999.90;;;28.10;51.40;;;;;;5171480;27;20236;-57
2021/03/18 08:55:58;;;;;;;1999.90;999.90;;;28.30;50.80;;;;;;5171386;27;20188;-54
2021/03/18 08:58:25;;;;;;;1999.90;999.90;;;28.20;49.70;;;;;;5168970;27;20169;-58
2021/03/18 09:00:52;;;;;;;1999.90;999.90;;;27.80;50.90;;;;;;5171469;27;20470;-56
2021/03/18 09:03:21;;;;;;;1999.90;999.90;;;27.30;52.00;;;;;;5170995;27;20516;-58
2021/03/18 09:05:58;;;;;;;1999.90;999.90;;;27.80;51.40;;;;;;5170247;27;20216;-52
2021/03/18 09:08:30;;;;;;;1999.90;999.90;;;27.60;52.00;;;;;;5171079;27;20157;-56
2021/03/18 09:10:57;;;;;;;1999.90;999.90;;;27.90;52.00;;;;;;5171245;27;20260;-56
2021/03/18 09:13:25;;;;;;;1999.90;999.90;;;28.00;51.50;;;;;;5171219;27;20607;-44
2021/03/18 09:15:56;;;;;;;1999.90;999.90;;;28.40;51.20;;;;;;5169368;27;20689;-46
2021/03/18 09:18:28;;;;;;;1999.90;999.90;;;28.40;50.20;;;;;;5157165;27;20158;-45
2021/03/18 09:21:09;;;;;;;1999.90;999.90;;;28.80;50.00;;;;;;5156628;27;20222;-46
2021/03/18 09:23:45;;;;;;;1999.90;999.90;;;28.60;49.70;;;;;;5156987;27;20181;-46
2021/03/18 09:26:14;;;;;;;1999.90;999.90;;;28.80;49.80;;;;;;5157044;27;20186;-47
2021/03/18 09:28:46;;;;;;;1999.90;999.90;;;28.90;48.90;;;;;;5156926;27;20525;-46
2021/03/18 09:31:20;;;;;;;1999.90;999.90;;;28.40;49.20;;;;;;5157121;27;20158;-48
2021/03/18 09:33:47;;;;;;;1999.90;999.90;;;28.10;50.40;;;;;;5156375;27;20165;-45
2021/03/18 09:36:17;;;;;;;1999.90;999.90;;;28.20;50.40;;;;;;5156796;27;20195;-45
2021/03/18 09:39:06;;;;;;;1999.90;999.90;;;28.30;50.40;;;;;;5156849;27;20257;-44
2021/03/18 09:41:36;;;;;;;1999.90;999.90;;;29.20;48.90;;;;;;5156249;27;20487;-53
2021/03/18 09:44:08;;;;;;;1999.90;999.90;;;28.90;48.70;;;;;;5156839;27;20165;-58
2021/03/18 09:46:36;;;;;;;1999.90;999.90;;;28.60;49.00;;;;;;5156416;27;20201;-49
2021/03/18 09:49:03;;;;;;;1999.90;999.90;;;28.60;49.50;;;;;;5156576;27;20173;-56
2021/03/18 09:51:36;;;;;;;1999.90;999.90;;;28.30;49.40;;;;;;5156244;27;20298;-47
2021/03/18 09:54:06;;;;;;;1999.90;999.90;;;28.80;48.60;;;;;;5142451;27;20689;-51
2021/03/18 09:56:46;;;;;;;1999.90;999.90;;;29.00;47.80;;;;;;5143288;27;20205;-63
2021/03/18 09:59:13;;;;;;;1999.90;999.90;;;28.60;48.10;;;;;;5155069;27;20158;-58
2021/03/18 10:01:40;;;;;;;1999.90;999.90;;;28.40;48.30;;;;;;5155688;27;20291;-60
2021/03/18 10:04:11;;;;;;;1999.90;999.90;;;28.50;48.50;;;;;;5155582;27;20170;-61
2021/03/18 10:06:58;;;;;;;1999.90;999.90;;;28.70;48.50;;;;;;5154038;27;20286;-57
2021/03/18 10:09:40;;;;;;;1999.90;999.90;;;28.80;48.60;;;;;;5154952;27;20678;-47
2021/03/18 10:12:13;;;;;;;1999.90;999.90;;;29.00;48.60;;;;;;5152786;27;20165;-46
2021/03/18 10:15:10;;;;;;;1999.90;999.90;;;28.80;47.70;;;;;;5154245;27;20188;-43
2021/03/18 10:17:43;;;;;;;1999.90;999.90;;;28.80;47.80;;;;;;5153416;27;20193;-53
2021/03/18 10:20:15;;;;;;;1999.90;999.90;;;28.30;48.60;;;;;;5152556;27;20166;-54
2021/03/18 10:22:47;;;;;;;1999.90;999.90;;;28.70;48.20;;;;;;5155538;27;20173;-56
2021/03/18 10:25:17;;;;;;;1999.90;999.90;;;28.60;47.60;;;;;;5153593;27;20193;-47
2021/03/18 10:27:50;;;;;;;1999.90;999.90;;;28.70;47.00;;;;;;5154522;27;20226;-47
2021/03/18 10:30:20;;;;;;;1999.90;999.90;;;29.10;47.30;;;;;;5154737;27;20627;-58
2021/03/18 10:33:24;;;;;;;1999.90;999.90;;;29.20;47.10;;;;;;5155426;27;20215;-52
2021/03/18 10:35:54;;;;;;;1999.90;999.90;;;29.40;45.60;;;;;;5151362;27;20551;-56
2021/03/18 10:38:31;;;;;;;1999.90;999.90;;;29.40;45.90;;;;;;5155424;27;20185;-57
2021/03/18 10:41:03;;;;;;;1999.90;999.90;;;28.70;47.20;;;;;;5144077;27;20169;-44
2021/03/18 10:43:32;;;;;;;1999.90;999.90;;;29.00;46.70;;;;;;5155618;27;20157;-52
2021/03/18 10:46:08;;;;;;;1999.90;999.90;;;29.20;45.40;;;;;;5155523;27;20202;-55
2021/03/18 10:48:37;;;;;;;1999.90;999.90;;;28.80;47.40;;;;;;5155486;27;20252;-55
2021/03/18 10:51:09;;;;;;;1999.90;999.90;;;28.90;46.30;;;;;;5155615;27;20170;-50
2021/03/18 10:53:40;;;;;;;1999.90;999.90;;;29.10;46.50;;;;;;5155285;27;20162;-52
2021/03/18 10:56:09;;;;;;;1999.90;999.90;;;29.40;46.20;;;;;;5155166;27;20166;-53
2021/03/18 10:58:37;;;;;;;1999.90;999.90;;;29.50;45.50;;;;;;5155480;27;20240;-46
2021/03/18 11:01:09;;;;;;;1999.90;999.90;;;29.20;45.70;;;;;;5155277;27;20643;-47
2021/03/18 11:03:41;;;;;;;1999.90;999.90;;;29.00;46.00;;;;;;5155024;27;20234;-59
2021/03/18 11:06:22;;;;;;;1999.90;999.90;;;28.80;46.60;;;;;;5155247;27;20599;-57
2021/03/18 11:08:54;;;;;;;1999.90;999.90;;;28.70;47.20;;;;;;5149376;27;20166;-55
2021/03/18 11:11:23;;;;;;;1999.90;999.90;;;29.00;45.30;;;;;;5135156;27;20184;-51
2021/03/18 11:13:50;;;;;;;1999.90;999.90;;;29.20;44.10;;;;;;5134243;27;20200;-57
2021/03/18 11:16:26;;;;;;;1999.90;999.90;;;29.60;43.40;;;;;;5151924;27;20684;-54
2021/03/18 11:19:00;;;;;;;1999.90;999.90;;;29.70;43.20;;;;;;5154624;27;20247;-60
2021/03/18 11:21:38;;;;;;;1999.90;999.90;;;30.00;42.40;;;;;;5154379;27;20635;-51
2021/03/18 11:24:12;;;;;;;1999.90;999.90;;;30.30;41.90;;;;;;5154444;27;20611;-49
2021/03/18 11:26:41;;;;;;;1999.90;999.90;;;30.00;41.90;;;;;;5154683;27;20189;-57
2021/03/18 11:29:14;;;;;;;1999.90;999.90;;;29.60;41.30;;;;;;5154181;27;20193;-58
2021/03/18 11:31:47;;;;;;;1999.90;999.90;;;29.60;41.70;;;;;;5154313;27;20196;-54
2021/03/18 11:34:19;;;;;;;1999.90;999.90;;;29.60;41.80;;;;;;5154188;27;20172;-65
2021/03/18 11:36:48;;;;;;;1999.90;999.90;;;29.80;42.50;;;;;;5151328;27;20165;-45
2021/03/18 11:39:16;;;;;;;1999.90;999.90;;;30.10;41.60;;;;;;5154239;27;20536;-52
2021/03/18 11:41:43;;;;;;;1999.90;999.90;;;30.20;39.90;;;;;;5143316;27;20619;-51
2021/03/18 11:44:10;;;;;;;1999.90;999.90;;;30.10;40.20;;;;;;5153724;27;20239;-53
2021/03/18 11:46:37;;;;;;;1999.90;999.90;;;29.90;40.30;;;;;;5154319;27;20193;-52
2021/03/18 11:49:04;;;;;;;1999.90;999.90;;;30.00;40.10;;;;;;5154513;27;20190;-48
2021/03/18 11:51:31;;;;;;;1999.90;999.90;;;30.00;39.70;;;;;;5154238;27;20168;-56
2021/03/18 11:53:58;;;;;;;1999.90;999.90;;;30.10;39.10;;;;;;5154147;27;20253;-59
2021/03/18 11:56:25;;;;;;;1999.90;999.90;;;30.10;39.30;;;;;;5154167;27;20178;-60
2021/03/18 11:58:51;;;;;;;1999.90;999.90;;;30.10;39.00;;;;;;5153956;27;20176;-58
2021/03/18 12:01:18;;;;;;;1999.90;999.90;;;30.00;38.30;;;;;;5154475;27;20170;-57
2021/03/18 12:03:45;;;;;;;1999.90;999.90;;;29.90;38.10;;;;;;5139886;27;20607;-56
2021/03/18 12:06:12;;;;;;;1999.90;999.90;;;29.80;38.30;;;;;;5154040;27;20580;-60
2021/03/18 12:08:39;;;;;;;1999.90;999.90;;;29.80;38.50;;;;;;5153499;27;20623;-47
2021/03/18 12:11:06;;;;;;;1999.90;999.90;;;29.60;38.60;;;;;;5154179;27;20201;-61
2021/03/18 12:13:33;;;;;;;1999.90;999.90;;;29.70;38.00;;;;;;5153715;27;20536;-41
2021/03/18 12:16:01;;;;;;;1999.90;999.90;;;29.80;38.60;;;;;;5153287;27;20209;-62
2021/03/18 12:18:30;;;;;;;1999.90;999.90;;;29.80;38.80;;;;;;5153901;27;20658;-52
2021/03/18 12:20:56;;;;;;;1999.90;999.90;;;30.20;37.70;;;;;;5153918;27;20174;-64
2021/03/18 12:23:23;;;;;;;1999.90;999.90;;;30.10;36.10;;;;;;5153519;27;20161;-56
2021/03/18 12:25:50;;;;;;;1999.90;999.90;;;29.90;37.20;;;;;;5153448;27;20473;-57
2021/03/18 12:28:17;;;;;;;1999.90;999.90;;;29.80;37.40;;;;;;5153591;27;20169;-55
2021/03/18 12:30:46;;;;;;;1999.90;999.90;;;29.70;36.80;;;;;;5154102;27;20170;-61
2021/03/18 12:33:14;;;;;;;1999.90;999.90;;;29.60;36.30;;;;;;5153514;27;20166;-58
2021/03/18 12:35:41;;;;;;;1999.90;999.90;;;29.60;36.90;;;;;;5153562;27;20184;-46
2021/03/18 12:38:08;;;;;;;1999.90;999.90;;;29.50;35.20;;;;;;5154017;27;20566;-44
2021/03/18 12:40:35;;;;;;;1999.90;999.90;;;29.70;34.80;;;;;;5154281;27;20261;-47
2021/03/18 12:43:02;;;;;;;1999.90;999.90;;;29.80;35.60;;;;;;5154280;27;20174;-44